createdAt,value
2023-12-07T00:00:18.501Z,73410.81
2023-12-07T00:00:51.032Z,73414.81
2023-12-07T00:01:26.122Z,73416.78
2023-12-07T00:01:58.658Z,73416.78
2023-12-07T00:02:31.054Z,73408.81
2023-12-07T00:03:03.530Z,73408.81
2023-12-07T00:03:38.511Z,73414.81
2023-12-07T00:04:11.018Z,73412.81
2023-12-07T00:04:43.440Z,73408.81
2023-12-07T00:05:15.902Z,73416.78
2023-12-07T00:05:48.335Z,73414.81
2023-12-07T00:06:23.718Z,73416.78
2023-12-07T00:06:56.187Z,73410.81
2023-12-07T00:07:28.633Z,73412.81
2023-12-07T00:08:01.092Z,73412.81
2023-12-07T00:08:36.072Z,73412.81
2023-12-07T00:09:08.474Z,73416.78
2023-12-07T00:09:40.847Z,73412.81
2023-12-07T00:10:13.323Z,73410.81
2023-12-07T00:10:45.796Z,73412.81
2023-12-07T00:11:23.375Z,73416.78
2023-12-07T00:11:55.997Z,73416.78
2023-12-07T00:12:28.682Z,73416.78
2023-12-07T00:13:01.383Z,73420.78
2023-12-07T00:13:36.450Z,73420.78
2023-12-07T00:14:08.862Z,73420.78
2023-12-07T00:14:41.235Z,73418.78
2023-12-07T00:15:16.231Z,73416.78
2023-12-07T00:15:49.097Z,73420.78
2023-12-07T00:16:21.490Z,73420.78
2023-12-07T00:16:53.925Z,73418.78
2023-12-07T00:17:28.906Z,73418.78
2023-12-07T00:18:01.686Z,73416.78
2023-12-07T00:18:34.483Z,73418.78
2023-12-07T00:19:09.582Z,73416.78
2023-12-07T00:19:42.002Z,73422.78
2023-12-07T00:20:14.510Z,73422.78
2023-12-07T00:20:46.915Z,73424.78
2023-12-07T00:21:21.868Z,73424.78
2023-12-07T00:21:54.259Z,73420.78
2023-12-07T00:22:27.977Z,73416.78
2023-12-07T00:23:03.962Z,73418.78
2023-12-07T00:23:36.324Z,73424.78
2023-12-07T00:24:09.149Z,73416.78
2023-12-07T00:24:44.106Z,73416.78
2023-12-07T00:25:17.247Z,73416.78
2023-12-07T00:25:49.854Z,73414.81
2023-12-07T00:26:27.440Z,73420.78
2023-12-07T00:27:00.373Z,73416.78
2023-12-07T00:27:32.877Z,73418.78
2023-12-07T00:28:06.685Z,73418.78
2023-12-07T00:28:41.682Z,73418.78
2023-12-07T00:29:14.084Z,73422.78
2023-12-07T00:29:46.468Z,73418.78
2023-12-07T00:30:22.152Z,73420.78
2023-12-07T00:30:54.556Z,73422.78
2023-12-07T00:31:27.544Z,73416.78
2023-12-07T00:31:59.934Z,73422.78
2023-12-07T00:32:34.957Z,73420.78
2023-12-07T00:33:07.353Z,73418.78
2023-12-07T00:33:39.706Z,73420.78
2023-12-07T00:34:14.764Z,73422.78
2023-12-07T00:34:47.406Z,73426.78
2023-12-07T00:35:23.413Z,73422.78
2023-12-07T00:35:58.480Z,73420.78
2023-12-07T00:36:31.192Z,73424.78
2023-12-07T00:37:04.456Z,73424.78
2023-12-07T00:37:37.462Z,73426.78
2023-12-07T00:38:12.735Z,73428.78
2023-12-07T00:38:45.088Z,73428.78
2023-12-07T00:39:18.420Z,73432.75
2023-12-07T00:39:50.813Z,73428.78
2023-12-07T00:40:23.659Z,73428.78
2023-12-07T00:40:58.652Z,73430.78
2023-12-07T00:41:33.704Z,73428.78
2023-12-07T00:42:06.290Z,73432.75
2023-12-07T00:42:39.184Z,73432.75
2023-12-07T00:43:14.210Z,73432.75
2023-12-07T00:43:46.817Z,73430.78
2023-12-07T00:44:19.174Z,73434.75
2023-12-07T00:44:51.554Z,73430.78
2023-12-07T00:45:26.577Z,73432.75
2023-12-07T00:45:59.315Z,73428.78
2023-12-07T00:46:31.763Z,73432.75
2023-12-07T00:47:04.769Z,73432.75
2023-12-07T00:47:39.876Z,73438.75
2023-12-07T00:48:12.369Z,73434.75
2023-12-07T00:48:44.767Z,73428.78
2023-12-07T00:49:17.222Z,73436.75
2023-12-07T00:49:52.354Z,73434.75
2023-12-07T00:50:24.781Z,73436.75
2023-12-07T00:50:57.168Z,73434.75
2023-12-07T00:51:29.543Z,73434.75
2023-12-07T00:52:04.678Z,73440.75
2023-12-07T00:52:37.111Z,73438.75
2023-12-07T00:53:10.136Z,73434.75
2023-12-07T00:53:42.647Z,73440.75
2023-12-07T00:54:17.756Z,73434.75
2023-12-07T00:54:50.169Z,73432.75
2023-12-07T00:55:22.629Z,73432.75
2023-12-07T00:55:57.591Z,73440.75
2023-12-07T00:56:32.552Z,73436.75
2023-12-07T00:57:05.176Z,73440.75
2023-12-07T00:57:37.554Z,73444.75
2023-12-07T00:58:12.580Z,73440.75
2023-12-07T00:58:45.020Z,73442.75
2023-12-07T00:59:17.794Z,73446.75
2023-12-07T00:59:50.219Z,73450.72
2023-12-07T01:00:25.188Z,73444.75
2023-12-07T01:00:57.635Z,73448.75
2023-12-07T01:01:30.055Z,73448.75
2023-12-07T01:02:02.622Z,73452.72
2023-12-07T01:02:37.678Z,73448.75
2023-12-07T01:03:10.080Z,73452.72
2023-12-07T01:03:42.456Z,73452.72
2023-12-07T01:04:17.508Z,73456.72
2023-12-07T01:04:50.009Z,73454.72
2023-12-07T01:05:22.512Z,73456.72
2023-12-07T01:05:57.605Z,73452.72
2023-12-07T01:06:30.153Z,73454.72
2023-12-07T01:07:02.883Z,73456.72
2023-12-07T01:07:38.102Z,73456.72
2023-12-07T01:08:10.514Z,73460.72
2023-12-07T01:08:43.020Z,73456.72
2023-12-07T01:09:16.157Z,73458.72
2023-12-07T01:09:51.223Z,73456.72
2023-12-07T01:10:23.647Z,73456.72
2023-12-07T01:10:55.998Z,73456.72
2023-12-07T01:11:28.445Z,73458.72
2023-12-07T01:12:06.203Z,73458.72
2023-12-07T01:12:38.635Z,73458.72
2023-12-07T01:13:11.047Z,73456.72
2023-12-07T01:13:43.427Z,73460.72
2023-12-07T01:14:18.465Z,73458.72
2023-12-07T01:14:50.855Z,73462.72
2023-12-07T01:15:23.232Z,73462.72
2023-12-07T01:15:58.252Z,73464.72
2023-12-07T01:16:30.990Z,73464.72
2023-12-07T01:17:03.648Z,73464.72
2023-12-07T01:17:36.068Z,73464.72
2023-12-07T01:18:11.120Z,73468.69
2023-12-07T01:18:43.553Z,73464.72
2023-12-07T01:19:16.137Z,73470.69
2023-12-07T01:19:48.571Z,73468.69
2023-12-07T01:20:23.569Z,73468.69
2023-12-07T01:20:56.081Z,73472.69
2023-12-07T01:21:28.531Z,73468.69
2023-12-07T01:22:00.969Z,73468.69
2023-12-07T01:22:36.007Z,73472.69
2023-12-07T01:23:10.978Z,73472.69
2023-12-07T01:23:44.472Z,73474.69
2023-12-07T01:24:17.162Z,73472.69
2023-12-07T01:24:52.274Z,73476.69
2023-12-07T01:25:25.702Z,73468.69
2023-12-07T01:26:01.630Z,73476.69
2023-12-07T01:26:34.030Z,73472.69
2023-12-07T01:27:11.725Z,73472.69
2023-12-07T01:27:44.136Z,73474.69
2023-12-07T01:28:16.636Z,73472.69
2023-12-07T01:28:49.043Z,73472.69
2023-12-07T01:29:24.492Z,73476.69
2023-12-07T01:29:57.031Z,73476.69
2023-12-07T01:30:29.449Z,73476.69
2023-12-07T01:31:02.154Z,73474.69
2023-12-07T01:31:37.208Z,73478.69
2023-12-07T01:32:10.064Z,73478.69
2023-12-07T01:32:42.409Z,73478.69
2023-12-07T01:33:14.789Z,73480.69
2023-12-07T01:33:47.297Z,73476.69
2023-12-07T01:34:22.411Z,73480.69
2023-12-07T01:34:54.878Z,73476.69
2023-12-07T01:35:27.255Z,73476.69
2023-12-07T01:36:02.231Z,73476.69
2023-12-07T01:36:34.660Z,73474.69
2023-12-07T01:37:07.107Z,73476.69
2023-12-07T01:37:39.623Z,73474.69
2023-12-07T01:38:14.651Z,73476.69
2023-12-07T01:38:47.041Z,73472.69
2023-12-07T01:39:19.972Z,73472.69
2023-12-07T01:39:52.365Z,73478.69
2023-12-07T01:40:27.381Z,73476.69
2023-12-07T01:40:59.814Z,73474.69
2023-12-07T01:41:32.380Z,73474.69
2023-12-07T01:42:05.121Z,73476.69
2023-12-07T01:42:42.774Z,73472.69
2023-12-07T01:43:15.269Z,73476.69
2023-12-07T01:43:48.190Z,73476.69
2023-12-07T01:44:21.249Z,73474.69
2023-12-07T01:44:56.252Z,73476.69
2023-12-07T01:45:28.839Z,73476.69
2023-12-07T01:46:01.431Z,73476.69
2023-12-07T01:46:34.776Z,73480.69
2023-12-07T01:47:11.674Z,73470.69
2023-12-07T01:47:44.332Z,73472.69
2023-12-07T01:48:16.896Z,73472.69
2023-12-07T01:48:50.738Z,73478.69
2023-12-07T01:49:26.184Z,73474.69
2023-12-07T01:49:58.754Z,73472.69
2023-12-07T01:50:31.164Z,73474.69
2023-12-07T01:51:05.561Z,73476.69
2023-12-07T01:51:40.683Z,73476.69
2023-12-07T01:52:13.261Z,73476.69
2023-12-07T01:52:48.431Z,73474.69
2023-12-07T01:53:22.155Z,73478.69
2023-12-07T01:53:57.223Z,73476.69
2023-12-07T01:54:29.603Z,73476.69
2023-12-07T01:55:02.181Z,73476.69
2023-12-07T01:55:34.843Z,73480.69
2023-12-07T01:56:11.725Z,73484.66
2023-12-07T01:56:44.241Z,73478.69
2023-12-07T01:57:16.671Z,73478.69
2023-12-07T01:57:51.744Z,73482.69
2023-12-07T01:58:26.785Z,73476.69
2023-12-07T01:58:59.325Z,73484.66
2023-12-07T01:59:31.752Z,73480.69
2023-12-07T02:00:05.175Z,73478.69
2023-12-07T02:00:40.356Z,73482.69
2023-12-07T02:01:13.837Z,73480.69
2023-12-07T02:01:46.600Z,73480.69
2023-12-07T02:02:19.522Z,73484.66
2023-12-07T02:02:54.983Z,73480.69
2023-12-07T02:03:28.740Z,73484.66
2023-12-07T02:04:01.247Z,73482.69
2023-12-07T02:04:34.224Z,73480.69
2023-12-07T02:05:10.363Z,73480.69
2023-12-07T02:05:44.732Z,73476.69
2023-12-07T02:06:17.298Z,73484.66
2023-12-07T02:06:49.891Z,73478.69
2023-12-07T02:07:25.779Z,73486.66
2023-12-07T02:07:58.249Z,73480.69
2023-12-07T02:08:30.702Z,73484.66
2023-12-07T02:09:03.658Z,73482.69
2023-12-07T02:09:38.708Z,73478.69
2023-12-07T02:10:12.012Z,73484.66
2023-12-07T02:10:44.583Z,73482.69
2023-12-07T02:11:17.034Z,73480.69
2023-12-07T02:11:52.045Z,73476.69
2023-12-07T02:12:24.628Z,73480.69
2023-12-07T02:12:59.814Z,73480.69
2023-12-07T02:13:32.201Z,73480.69
2023-12-07T02:14:07.194Z,73480.69
2023-12-07T02:14:39.609Z,73480.69
2023-12-07T02:15:12.955Z,73480.69
2023-12-07T02:15:45.457Z,73480.69
2023-12-07T02:16:25.844Z,73482.69
2023-12-07T02:17:02.976Z,73478.69
2023-12-07T02:17:38.507Z,73484.66
2023-12-07T02:18:19.019Z,73482.69
2023-12-07T02:18:54.107Z,73480.69
2023-12-07T02:19:51.713Z,73484.66
2023-12-07T02:20:32.274Z,73484.66
2023-12-07T02:21:12.534Z,73488.66
2023-12-07T02:21:49.549Z,73488.66
2023-12-07T02:22:27.931Z,73488.66
2023-12-07T02:23:05.685Z,73490.66
2023-12-07T02:23:46.664Z,73488.66
2023-12-07T02:24:23.505Z,73494.66
2023-12-07T02:25:06.297Z,73492.66
2023-12-07T02:26:04.201Z,73492.66
2023-12-07T02:27:17.897Z,73490.66
2023-12-07T02:27:50.271Z,73496.66
2023-12-07T02:28:22.698Z,73492.66
2023-12-07T02:28:55.130Z,73492.66
2023-12-07T02:29:30.066Z,73494.66
2023-12-07T02:30:02.430Z,73490.66
2023-12-07T02:30:34.817Z,73494.66
2023-12-07T02:31:07.272Z,73490.66
2023-12-07T02:31:42.315Z,73492.66
2023-12-07T02:32:15.028Z,73488.66
2023-12-07T02:32:47.691Z,73492.66
2023-12-07T02:33:20.294Z,73496.66
2023-12-07T02:33:55.509Z,73492.66
2023-12-07T02:34:28.070Z,73496.66
2023-12-07T02:35:01.233Z,73496.66
2023-12-07T02:35:35.156Z,73496.66
2023-12-07T02:36:10.924Z,73492.66
2023-12-07T02:36:45.078Z,73492.66
2023-12-07T02:37:17.982Z,73498.66
2023-12-07T02:37:51.723Z,73496.66
2023-12-07T02:38:27.333Z,73494.66
2023-12-07T02:39:02.650Z,73492.66
2023-12-07T02:39:35.134Z,73498.66
2023-12-07T02:40:12.149Z,73500.63
2023-12-07T02:40:48.950Z,73496.66
2023-12-07T02:41:21.951Z,73500.63
2023-12-07T02:41:55.308Z,73500.63
2023-12-07T02:42:30.449Z,73502.63
2023-12-07T02:43:05.952Z,73502.63
2023-12-07T02:43:39.145Z,73498.66
2023-12-07T02:44:11.810Z,73500.63
2023-12-07T02:44:44.148Z,73500.63
2023-12-07T02:45:19.575Z,73496.66
2023-12-07T02:45:52.038Z,73496.66
2023-12-07T02:46:24.429Z,73498.66
2023-12-07T02:46:56.807Z,73498.66
2023-12-07T02:47:33.056Z,73498.66
2023-12-07T02:48:06.224Z,73500.63
2023-12-07T02:48:38.635Z,73500.63
2023-12-07T02:49:13.768Z,73508.63
2023-12-07T02:49:46.214Z,73508.63
2023-12-07T02:50:18.629Z,73508.63
2023-12-07T02:50:51.132Z,73508.63
2023-12-07T02:51:26.158Z,73512.63
2023-12-07T02:51:58.590Z,73512.63
2023-12-07T02:52:31.009Z,73508.63
2023-12-07T02:53:06.060Z,73508.63
2023-12-07T02:53:38.476Z,73508.63
2023-12-07T02:54:10.884Z,73512.63
2023-12-07T02:54:43.577Z,73512.63
2023-12-07T02:55:18.679Z,73516.59
2023-12-07T02:55:51.133Z,73514.63
2023-12-07T02:56:23.556Z,73516.59
2023-12-07T02:56:55.950Z,73510.63
2023-12-07T02:57:34.829Z,73510.63
2023-12-07T02:58:08.135Z,73514.63
2023-12-07T02:58:40.697Z,73512.63
2023-12-07T02:59:13.197Z,73514.63
2023-12-07T02:59:48.141Z,73510.63
2023-12-07T03:00:22.500Z,73512.63
2023-12-07T03:00:54.857Z,73508.63
2023-12-07T03:01:30.130Z,73512.63
2023-12-07T03:02:02.607Z,73512.63
2023-12-07T03:02:35.513Z,73512.63
2023-12-07T03:03:07.919Z,73510.63
2023-12-07T03:03:43.544Z,73510.63
2023-12-07T03:04:15.988Z,73508.63
2023-12-07T03:04:48.704Z,73508.63
2023-12-07T03:05:21.762Z,73504.63
2023-12-07T03:05:56.804Z,73506.63
2023-12-07T03:06:30.155Z,73504.63
2023-12-07T03:07:02.532Z,73504.63
2023-12-07T03:07:37.748Z,73508.63
2023-12-07T03:08:10.143Z,73508.63
2023-12-07T03:08:42.480Z,73504.63
2023-12-07T03:09:14.896Z,73506.63
2023-12-07T03:09:49.878Z,73508.63
2023-12-07T03:10:22.268Z,73512.63
2023-12-07T03:10:54.638Z,73508.63
2023-12-07T03:11:26.975Z,73504.63
2023-12-07T03:11:59.318Z,73512.63
2023-12-07T03:12:36.857Z,73506.63
2023-12-07T03:13:09.282Z,73510.63
2023-12-07T03:13:41.754Z,73512.63
2023-12-07T03:14:14.150Z,73508.63
2023-12-07T03:14:49.147Z,73506.63
2023-12-07T03:15:22.537Z,73510.63
2023-12-07T03:15:54.950Z,73504.63
2023-12-07T03:16:29.922Z,73510.63
2023-12-07T03:17:02.336Z,73510.63
2023-12-07T03:17:35.280Z,73514.63
2023-12-07T03:18:08.606Z,73512.63
2023-12-07T03:18:43.712Z,73508.63
2023-12-07T03:19:16.255Z,73504.63
2023-12-07T03:19:48.736Z,73512.63
2023-12-07T03:20:21.587Z,73504.63
2023-12-07T03:20:56.548Z,73508.63
2023-12-07T03:21:28.964Z,73512.63
2023-12-07T03:22:01.379Z,73510.63
2023-12-07T03:22:36.435Z,73512.63
2023-12-07T03:23:08.902Z,73510.63
2023-12-07T03:23:41.292Z,73512.63
2023-12-07T03:24:13.750Z,73512.63
2023-12-07T03:24:50.900Z,73510.63
2023-12-07T03:25:23.524Z,73514.63
2023-12-07T03:25:55.893Z,73516.59
2023-12-07T03:26:28.271Z,73514.63
2023-12-07T03:27:03.223Z,73512.63
2023-12-07T03:27:38.206Z,73514.63
2023-12-07T03:28:10.643Z,73512.63
2023-12-07T03:28:43.001Z,73520.59
2023-12-07T03:29:17.947Z,73516.59
2023-12-07T03:29:50.422Z,73518.59
2023-12-07T03:30:22.799Z,73514.63
2023-12-07T03:30:55.221Z,73520.59
2023-12-07T03:31:30.351Z,73518.59
2023-12-07T03:32:02.713Z,73516.59
2023-12-07T03:32:35.136Z,73518.59
2023-12-07T03:33:07.679Z,73520.59
2023-12-07T03:33:42.682Z,73516.59
2023-12-07T03:34:17.097Z,73518.59
2023-12-07T03:34:49.601Z,73520.59
2023-12-07T03:35:23.028Z,73520.59
2023-12-07T03:35:58.072Z,73516.59
2023-12-07T03:36:32.472Z,73522.59
2023-12-07T03:37:05.391Z,73518.59
2023-12-07T03:37:37.831Z,73518.59
2023-12-07T03:38:12.795Z,73522.59
2023-12-07T03:38:45.160Z,73524.59
2023-12-07T03:39:19.892Z,73520.59
2023-12-07T03:39:55.046Z,73532.59
2023-12-07T03:40:27.419Z,73528.59
2023-12-07T03:40:59.804Z,73524.59
2023-12-07T03:41:32.258Z,73526.59
2023-12-07T03:42:48.191Z,73532.59
2023-12-07T03:43:04.877Z,73524.59
2023-12-07T03:43:40.044Z,73528.59
2023-12-07T03:44:12.479Z,73526.59
2023-12-07T03:44:45.271Z,73528.59
2023-12-07T03:45:20.352Z,73534.56
2023-12-07T03:45:53.525Z,73536.56
2023-12-07T03:46:25.962Z,73536.56
2023-12-07T03:47:01.089Z,73534.56
2023-12-07T03:47:33.468Z,73536.56
2023-12-07T03:48:06.432Z,73538.56
2023-12-07T03:48:38.856Z,73540.56
2023-12-07T03:49:13.866Z,73536.56
2023-12-07T03:49:46.400Z,73540.56
2023-12-07T03:50:18.776Z,73542.56
2023-12-07T03:50:51.185Z,73540.56
2023-12-07T03:51:26.159Z,73544.56
2023-12-07T03:51:58.572Z,73540.56
2023-12-07T03:52:31.043Z,73536.56
2023-12-07T03:53:03.733Z,73538.56
2023-12-07T03:53:38.680Z,73540.56
2023-12-07T03:54:11.081Z,73542.56
2023-12-07T03:54:43.441Z,73540.56
2023-12-07T03:55:18.518Z,73544.56
2023-12-07T03:55:50.930Z,73544.56
2023-12-07T03:56:26.589Z,73542.56
2023-12-07T03:56:58.932Z,73542.56
2023-12-07T03:57:33.885Z,73540.56
2023-12-07T03:58:08.869Z,73544.56
2023-12-07T03:58:41.258Z,73544.56
2023-12-07T03:59:13.634Z,73544.56
2023-12-07T03:59:48.590Z,73540.56
2023-12-07T04:00:20.951Z,73544.56
2023-12-07T04:00:53.365Z,73544.56
2023-12-07T04:01:26.704Z,73544.56
2023-12-07T04:02:01.808Z,73544.56
2023-12-07T04:02:34.503Z,73542.56
2023-12-07T04:03:06.924Z,73550.56
2023-12-07T04:03:39.508Z,73544.56
2023-12-07T04:04:14.677Z,73544.56
2023-12-07T04:04:47.039Z,73552.53
2023-12-07T04:05:19.444Z,73548.56
2023-12-07T04:05:51.861Z,73548.56
2023-12-07T04:06:24.593Z,73546.56
2023-12-07T04:06:59.547Z,73548.56
2023-12-07T04:07:32.238Z,73552.53
2023-12-07T04:08:06.418Z,73550.56
2023-12-07T04:08:38.830Z,73548.56
2023-12-07T04:09:13.840Z,73550.56
2023-12-07T04:09:46.481Z,73552.53
2023-12-07T04:10:18.871Z,73552.53
2023-12-07T04:10:52.246Z,73556.53
2023-12-07T04:11:27.231Z,73558.53
2023-12-07T04:11:59.582Z,73556.53
2023-12-07T04:12:31.939Z,73556.53
2023-12-07T04:13:04.366Z,73560.53
2023-12-07T04:13:42.513Z,73560.53
2023-12-07T04:14:14.934Z,73560.53
2023-12-07T04:14:47.271Z,73560.53
2023-12-07T04:15:20.145Z,73564.53
2023-12-07T04:15:55.124Z,73562.53
2023-12-07T04:16:27.978Z,73562.53
2023-12-07T04:17:00.400Z,73560.53
2023-12-07T04:17:32.807Z,73560.53
2023-12-07T04:18:08.046Z,73560.53
2023-12-07T04:18:40.717Z,73568.50
2023-12-07T04:19:13.316Z,73568.50
2023-12-07T04:19:45.835Z,73568.50
2023-12-07T04:20:21.044Z,73564.53
2023-12-07T04:20:53.403Z,73568.50
2023-12-07T04:21:25.783Z,73572.50
2023-12-07T04:21:58.162Z,73568.50
2023-12-07T04:22:30.635Z,73572.50
2023-12-07T04:23:05.637Z,73576.50
2023-12-07T04:23:38.022Z,73568.50
2023-12-07T04:24:10.517Z,73572.50
2023-12-07T04:24:42.853Z,73572.50
2023-12-07T04:25:17.927Z,73572.50
2023-12-07T04:25:50.511Z,73570.50
2023-12-07T04:26:22.882Z,73578.50
2023-12-07T04:26:55.967Z,73582.50
2023-12-07T04:27:30.939Z,73584.50
2023-12-07T04:28:03.524Z,73580.50
2023-12-07T04:28:38.679Z,73584.50
2023-12-07T04:29:13.789Z,73580.50
2023-12-07T04:29:46.156Z,73576.50
2023-12-07T04:30:18.612Z,73572.50
2023-12-07T04:30:54.115Z,73568.50
2023-12-07T04:31:26.605Z,73566.53
2023-12-07T04:31:59.011Z,73566.53
2023-12-07T04:32:31.389Z,73562.53
2023-12-07T04:33:06.646Z,73560.53
2023-12-07T04:33:39.173Z,73554.53
2023-12-07T04:34:11.616Z,73556.53
2023-12-07T04:34:44.246Z,73544.56
2023-12-07T04:35:19.252Z,73538.56
2023-12-07T04:35:51.786Z,73536.56
2023-12-07T04:36:26.811Z,73526.59
2023-12-07T04:36:59.256Z,73520.59
2023-12-07T04:37:31.719Z,73516.59
2023-12-07T04:38:04.246Z,73512.63
2023-12-07T04:38:39.240Z,73508.63
2023-12-07T04:39:11.618Z,73500.63
2023-12-07T04:39:43.963Z,73496.66
2023-12-07T04:40:16.961Z,73488.66
2023-12-07T04:40:52.221Z,73488.66
2023-12-07T04:41:24.583Z,73480.69
2023-12-07T04:41:56.985Z,73472.69
2023-12-07T04:42:29.323Z,73464.72
2023-12-07T04:43:04.372Z,73468.69
2023-12-07T04:43:39.419Z,73456.72
2023-12-07T04:44:11.805Z,73452.72
2023-12-07T04:44:44.202Z,73452.72
2023-12-07T04:45:19.429Z,73448.75
2023-12-07T04:45:51.808Z,73442.75
2023-12-07T04:46:24.441Z,73440.75
2023-12-07T04:46:56.941Z,73436.75
2023-12-07T04:47:31.938Z,73428.78
2023-12-07T04:48:05.903Z,73434.75
2023-12-07T04:48:38.483Z,73428.78
2023-12-07T04:49:13.654Z,73426.78
2023-12-07T04:49:46.159Z,73426.78
2023-12-07T04:50:18.957Z,73422.78
2023-12-07T04:50:52.208Z,73418.78
2023-12-07T04:51:27.167Z,73420.78
2023-12-07T04:51:59.685Z,73416.78
2023-12-07T04:52:33.162Z,73414.81
2023-12-07T04:53:06.474Z,73404.81
2023-12-07T04:53:41.502Z,73400.81
2023-12-07T04:54:19.453Z,73404.81
2023-12-07T04:54:52.618Z,73404.81
2023-12-07T04:55:25.074Z,73404.81
2023-12-07T04:56:00.186Z,73404.81
2023-12-07T04:56:32.597Z,73402.81
2023-12-07T04:57:05.402Z,73398.81
2023-12-07T04:57:37.967Z,73404.81
2023-12-07T04:58:13.062Z,73396.84
2023-12-07T04:58:48.139Z,73396.84
2023-12-07T04:59:20.498Z,73396.84
2023-12-07T04:59:52.851Z,73390.84
2023-12-07T05:00:28.636Z,73394.84
2023-12-07T05:01:01.121Z,73390.84
2023-12-07T05:01:33.660Z,73384.84
2023-12-07T05:02:06.175Z,73390.84
2023-12-07T05:02:39.036Z,73388.84
2023-12-07T05:03:14.090Z,73388.84
2023-12-07T05:03:46.595Z,73384.84
2023-12-07T05:04:18.991Z,73388.84
2023-12-07T05:04:51.375Z,73388.84
2023-12-07T05:05:25.978Z,73384.84
2023-12-07T05:06:01.199Z,73386.84
2023-12-07T05:06:33.662Z,73384.84
2023-12-07T05:07:06.164Z,73380.88
2023-12-07T05:07:38.859Z,73384.84
2023-12-07T05:08:13.922Z,73384.84
2023-12-07T05:08:46.280Z,73382.84
2023-12-07T05:09:18.919Z,73384.84
2023-12-07T05:09:52.224Z,73384.84
2023-12-07T05:10:27.255Z,73384.84
2023-12-07T05:10:59.675Z,73386.84
2023-12-07T05:11:32.041Z,73380.88
2023-12-07T05:12:05.036Z,73380.88
2023-12-07T05:12:39.993Z,73380.88
2023-12-07T05:13:12.454Z,73376.88
2023-12-07T05:13:47.449Z,73380.88
2023-12-07T05:14:19.815Z,73382.84
2023-12-07T05:14:54.769Z,73380.88
2023-12-07T05:15:27.157Z,73374.88
2023-12-07T05:15:59.801Z,73376.88
2023-12-07T05:16:32.284Z,73378.88
2023-12-07T05:17:07.949Z,73372.88
2023-12-07T05:17:40.392Z,73380.88
2023-12-07T05:18:12.853Z,73382.84
2023-12-07T05:18:45.506Z,73380.88
2023-12-07T05:19:20.569Z,73384.84
2023-12-07T05:19:53.025Z,73388.84
2023-12-07T05:20:27.071Z,73392.84
2023-12-07T05:21:02.011Z,73398.81
2023-12-07T05:21:34.367Z,73404.81
2023-12-07T05:22:06.829Z,73414.81
2023-12-07T05:22:39.246Z,73420.78
2023-12-07T05:23:14.322Z,73424.78
2023-12-07T05:23:46.666Z,73428.78
2023-12-07T05:24:19.676Z,73444.75
2023-12-07T05:24:52.254Z,73448.75
2023-12-07T05:25:27.230Z,73452.72
2023-12-07T05:25:59.589Z,73464.72
2023-12-07T05:26:34.277Z,73464.72
2023-12-07T05:27:06.651Z,73476.69
2023-12-07T05:27:41.614Z,73482.69
2023-12-07T05:28:14.415Z,73488.66
2023-12-07T05:28:49.671Z,73488.66
2023-12-07T05:29:22.187Z,73492.66
2023-12-07T05:29:57.175Z,73492.66
2023-12-07T05:30:29.513Z,73498.66
2023-12-07T05:31:02.085Z,73498.66
2023-12-07T05:31:34.535Z,73502.63
2023-12-07T05:32:10.549Z,73512.63
2023-12-07T05:32:42.941Z,73506.63
2023-12-07T05:33:16.671Z,73514.63
2023-12-07T05:33:49.108Z,73518.59
2023-12-07T05:34:24.187Z,73524.59
2023-12-07T05:34:56.607Z,73532.59
2023-12-07T05:35:29.013Z,73534.56
2023-12-07T05:36:01.892Z,73540.56
2023-12-07T05:36:36.927Z,73540.56
2023-12-07T05:37:09.524Z,73542.56
2023-12-07T05:37:41.937Z,73546.56
2023-12-07T05:38:17.229Z,73544.56
2023-12-07T05:38:49.585Z,73550.56
2023-12-07T05:39:22.824Z,73552.53
2023-12-07T05:39:55.171Z,73556.53
2023-12-07T05:40:30.344Z,73558.53
2023-12-07T05:41:02.991Z,73554.53
2023-12-07T05:41:35.376Z,73560.53
2023-12-07T05:42:07.835Z,73556.53
2023-12-07T05:42:42.787Z,73564.53
2023-12-07T05:43:16.716Z,73564.53
2023-12-07T05:43:52.598Z,73564.53
2023-12-07T05:44:25.009Z,73564.53
2023-12-07T05:45:00.665Z,73570.50
2023-12-07T05:45:33.041Z,73572.50
2023-12-07T05:46:05.689Z,73568.50
2023-12-07T05:46:38.247Z,73580.50
2023-12-07T05:47:13.371Z,73576.50
2023-12-07T05:47:45.884Z,73580.50
2023-12-07T05:48:18.423Z,73584.50
2023-12-07T05:48:52.299Z,73584.50
2023-12-07T05:49:29.032Z,73586.47
2023-12-07T05:50:01.473Z,73584.50
2023-12-07T05:50:33.918Z,73588.47
2023-12-07T05:51:06.732Z,73592.47
2023-12-07T05:51:41.691Z,73590.47
2023-12-07T05:52:14.124Z,73598.47
2023-12-07T05:52:46.540Z,73592.47
2023-12-07T05:53:21.514Z,73596.47
2023-12-07T05:53:54.097Z,73604.44
2023-12-07T05:54:26.584Z,73604.44
2023-12-07T05:54:59.036Z,73604.44
2023-12-07T05:55:34.460Z,73602.47
2023-12-07T05:56:07.645Z,73600.47
2023-12-07T05:56:40.136Z,73596.47
2023-12-07T05:57:12.526Z,73602.47
2023-12-07T05:57:49.166Z,73604.44
2023-12-07T05:58:21.599Z,73600.47
2023-12-07T05:58:56.564Z,73602.47
2023-12-07T05:59:31.507Z,73602.47
2023-12-07T06:00:04.791Z,73600.47
2023-12-07T06:00:44.997Z,73600.47
2023-12-07T06:01:19.202Z,73608.44
2023-12-07T06:01:55.999Z,73604.44
2023-12-07T06:02:28.678Z,73606.44
2023-12-07T06:03:01.126Z,73608.44
2023-12-07T06:03:33.968Z,73608.44
2023-12-07T06:04:14.010Z,73604.44
2023-12-07T06:04:46.682Z,73604.44
2023-12-07T06:05:19.593Z,73608.44
2023-12-07T06:05:52.061Z,73606.44
2023-12-07T06:06:27.065Z,73606.44
2023-12-07T06:06:59.482Z,73596.47
2023-12-07T06:07:32.159Z,73606.44
2023-12-07T06:08:05.600Z,73612.44
2023-12-07T06:08:41.014Z,73608.44
2023-12-07T06:09:13.353Z,73608.44
2023-12-07T06:09:45.899Z,73612.44
2023-12-07T06:10:20.974Z,73616.44
2023-12-07T06:10:53.374Z,73616.44
2023-12-07T06:11:25.740Z,73612.44
2023-12-07T06:11:58.161Z,73616.44
2023-12-07T06:12:33.521Z,73616.44
2023-12-07T06:13:06.491Z,73608.44
2023-12-07T06:13:39.541Z,73620.41
2023-12-07T06:14:14.597Z,73612.44
2023-12-07T06:14:49.557Z,73614.44
2023-12-07T06:15:21.940Z,73612.44
2023-12-07T06:15:54.301Z,73616.44
2023-12-07T06:16:27.807Z,73616.44
2023-12-07T06:17:03.240Z,73618.44
2023-12-07T06:17:35.730Z,73616.44
2023-12-07T06:18:08.359Z,73614.44
2023-12-07T06:18:41.004Z,73622.41
2023-12-07T06:19:16.140Z,73620.41
2023-12-07T06:19:48.733Z,73620.41
2023-12-07T06:20:21.465Z,73614.44
2023-12-07T06:20:53.885Z,73620.41
2023-12-07T06:21:31.145Z,73620.41
2023-12-07T06:22:05.015Z,73624.41
2023-12-07T06:22:37.445Z,73622.41
2023-12-07T06:23:14.017Z,73618.44
2023-12-07T06:23:49.122Z,73620.41
2023-12-07T06:24:25.891Z,73620.41
2023-12-07T06:24:58.305Z,73628.41
2023-12-07T06:25:30.733Z,73626.41
2023-12-07T06:26:03.637Z,73628.41
2023-12-07T06:26:38.609Z,73624.41
2023-12-07T06:27:11.469Z,73628.41
2023-12-07T06:27:43.809Z,73624.41
2023-12-07T06:28:18.998Z,73622.41
2023-12-07T06:28:51.453Z,73624.41
2023-12-07T06:29:28.749Z,73624.41
2023-12-07T06:30:02.304Z,73624.41
2023-12-07T06:30:37.323Z,73624.41
2023-12-07T06:31:10.205Z,73620.41
2023-12-07T06:31:44.901Z,73624.41
2023-12-07T06:32:20.056Z,73624.41
2023-12-07T06:32:52.460Z,73624.41
2023-12-07T06:33:24.898Z,73620.41
2023-12-07T06:33:57.316Z,73620.41
2023-12-07T06:34:32.484Z,73626.41
2023-12-07T06:35:05.940Z,73620.41
2023-12-07T06:35:38.357Z,73622.41
2023-12-07T06:36:11.067Z,73616.44